sensor_id;sensor_type;location;lat;lon;timestamp;P1;P2;P0
76661;PMS5003;65579;45.534;6.212;2023-08-17T00:01:35;13;13;
76661;PMS5003;65579;45.534;6.212;2023-08-17T00:04:01;12;12;
76661;PMS5003;65579;45.534;6.212;2023-08-17T00:06:27;13;13;
76661;PMS5003;65579;45.534;6.212;2023-08-17T00:08:52;12;12;
76661;PMS5003;65579;45.534;6.212;2023-08-17T00:11:18;11;11;
76661;PMS5003;65579;45.534;6.212;2023-08-17T00:13:44;14;12;
76661;PMS5003;65579;45.534;6.212;2023-08-17T00:16:09;12;12;
76661;PMS5003;65579;45.534;6.212;2023-08-17T00:18:35;11;11;
76661;PMS5003;65579;45.534;6.212;2023-08-17T00:21:01;15;12;
76661;PMS5003;65579;45.534;6.212;2023-08-17T00:23:26;12;12;
76661;PMS5003;65579;45.534;6.212;2023-08-17T00:25:52;10;10;
76661;PMS5003;65579;45.534;6.212;2023-08-17T00:28:18;12;12;
76661;PMS5003;65579;45.534;6.212;2023-08-17T00:30:43;12;12;
76661;PMS5003;65579;45.534;6.212;2023-08-17T00:33:09;15;12;
76661;PMS5003;65579;45.534;6.212;2023-08-17T00:35:35;11;11;
76661;PMS5003;65579;45.534;6.212;2023-08-17T00:38:01;12;12;
76661;PMS5003;65579;45.534;6.212;2023-08-17T00:40:26;15;15;
76661;PMS5003;65579;45.534;6.212;2023-08-17T00:42:52;15;14;
76661;PMS5003;65579;45.534;6.212;2023-08-17T00:45:18;13;13;
76661;PMS5003;65579;45.534;6.212;2023-08-17T00:47:44;16;14;
76661;PMS5003;65579;45.534;6.212;2023-08-17T00:50:09;12;12;
76661;PMS5003;65579;45.534;6.212;2023-08-17T00:52:35;13;10;
76661;PMS5003;65579;45.534;6.212;2023-08-17T00:55:00;11;11;
76661;PMS5003;65579;45.534;6.212;2023-08-17T00:57:26;13;12;
76661;PMS5003;65579;45.534;6.212;2023-08-17T00:59:52;12;12;
76661;PMS5003;65579;45.534;6.212;2023-08-17T01:02:17;11;11;
76661;PMS5003;65579;45.534;6.212;2023-08-17T01:04:43;9;9;
76661;PMS5003;65579;45.534;6.212;2023-08-17T01:07:09;12;12;
76661;PMS5003;65579;45.534;6.212;2023-08-17T01:09:34;10;10;
76661;PMS5003;65579;45.534;6.212;2023-08-17T01:12:02;13;11;
76661;PMS5003;65579;45.534;6.212;2023-08-17T01:14:27;14;14;
76661;PMS5003;65579;45.534;6.212;2023-08-17T01:16:52;9;9;
76661;PMS5003;65579;45.534;6.212;2023-08-17T01:19:18;14;14;
76661;PMS5003;65579;45.534;6.212;2023-08-17T01:21:43;16;15;
76661;PMS5003;65579;45.534;6.212;2023-08-17T01:24:08;13;13;
76661;PMS5003;65579;45.534;6.212;2023-08-17T01:26:33;13;13;
76661;PMS5003;65579;45.534;6.212;2023-08-17T01:28:59;13;13;
76661;PMS5003;65579;45.534;6.212;2023-08-17T01:31:27;13;12;
76661;PMS5003;65579;45.534;6.212;2023-08-17T01:33:59;10;10;
76661;PMS5003;65579;45.534;6.212;2023-08-17T01:36:19;11;11;
76661;PMS5003;65579;45.534;6.212;2023-08-17T01:38:42;12;12;
76661;PMS5003;65579;45.534;6.212;2023-08-17T01:41:09;11;11;
76661;PMS5003;65579;45.534;6.212;2023-08-17T01:43:33;13;13;
76661;PMS5003;65579;45.534;6.212;2023-08-17T01:45:59;12;11;
76661;PMS5003;65579;45.534;6.212;2023-08-17T01:48:25;11;11;
76661;PMS5003;65579;45.534;6.212;2023-08-17T01:50:51;14;13;
76661;PMS5003;65579;45.534;6.212;2023-08-17T01:53:16;11;11;
76661;PMS5003;65579;45.534;6.212;2023-08-17T01:55:42;13;11;
76661;PMS5003;65579;45.534;6.212;2023-08-17T01:58:07;10;10;
76661;PMS5003;65579;45.534;6.212;2023-08-17T02:00:32;13;12;
76661;PMS5003;65579;45.534;6.212;2023-08-17T02:02:58;12;12;
76661;PMS5003;65579;45.534;6.212;2023-08-17T02:05:24;12;12;
76661;PMS5003;65579;45.534;6.212;2023-08-17T02:07:49;18;18;
76661;PMS5003;65579;45.534;6.212;2023-08-17T02:10:14;12;12;
76661;PMS5003;65579;45.534;6.212;2023-08-17T02:12:40;12;12;
76661;PMS5003;65579;45.534;6.212;2023-08-17T02:15:06;11;11;
76661;PMS5003;65579;45.534;6.212;2023-08-17T02:17:32;10;10;
76661;PMS5003;65579;45.534;6.212;2023-08-17T02:19:57;15;15;
76661;PMS5003;65579;45.534;6.212;2023-08-17T02:22:22;13;11;
76661;PMS5003;65579;45.534;6.212;2023-08-17T02:24:48;11;11;
76661;PMS5003;65579;45.534;6.212;2023-08-17T02:27:14;13;13;
76661;PMS5003;65579;45.534;6.212;2023-08-17T02:29:39;14;14;
76661;PMS5003;65579;45.534;6.212;2023-08-17T02:32:05;15;13;
76661;PMS5003;65579;45.534;6.212;2023-08-17T02:34:31;16;14;
76661;PMS5003;65579;45.534;6.212;2023-08-17T02:36:57;15;14;
76661;PMS5003;65579;45.534;6.212;2023-08-17T02:39:22;13;12;
76661;PMS5003;65579;45.534;6.212;2023-08-17T02:41:48;14;13;
76661;PMS5003;65579;45.534;6.212;2023-08-17T02:44:14;14;13;
76661;PMS5003;65579;45.534;6.212;2023-08-17T02:46:40;13;13;
76661;PMS5003;65579;45.534;6.212;2023-08-17T02:49:06;12;12;
76661;PMS5003;65579;45.534;6.212;2023-08-17T02:51:32;13;13;
76661;PMS5003;65579;45.534;6.212;2023-08-17T02:53:57;12;12;
76661;PMS5003;65579;45.534;6.212;2023-08-17T02:56:23;11;11;
76661;PMS5003;65579;45.534;6.212;2023-08-17T02:58:49;11;11;
76661;PMS5003;65579;45.534;6.212;2023-08-17T03:01:15;10;10;
76661;PMS5003;65579;45.534;6.212;2023-08-17T03:03:40;14;12;
76661;PMS5003;65579;45.534;6.212;2023-08-17T03:06:06;13;13;
76661;PMS5003;65579;45.534;6.212;2023-08-17T03:08:32;15;14;
76661;PMS5003;65579;45.534;6.212;2023-08-17T03:10:58;10;10;
76661;PMS5003;65579;45.534;6.212;2023-08-17T03:13:24;11;11;
76661;PMS5003;65579;45.534;6.212;2023-08-17T03:15:49;14;13;
76661;PMS5003;65579;45.534;6.212;2023-08-17T03:18:15;13;13;
76661;PMS5003;65579;45.534;6.212;2023-08-17T03:20:41;11;11;
76661;PMS5003;65579;45.534;6.212;2023-08-17T03:23:07;16;16;
76661;PMS5003;65579;45.534;6.212;2023-08-17T03:25:32;17;17;
76661;PMS5003;65579;45.534;6.212;2023-08-17T03:27:58;11;10;
76661;PMS5003;65579;45.534;6.212;2023-08-17T03:30:23;16;16;
76661;PMS5003;65579;45.534;6.212;2023-08-17T03:32:49;14;14;
76661;PMS5003;65579;45.534;6.212;2023-08-17T03:35:15;13;13;
76661;PMS5003;65579;45.534;6.212;2023-08-17T03:37:41;16;16;
76661;PMS5003;65579;45.534;6.212;2023-08-17T03:40:07;12;12;
76661;PMS5003;65579;45.534;6.212;2023-08-17T03:42:32;13;13;
76661;PMS5003;65579;45.534;6.212;2023-08-17T03:44:58;12;12;
76661;PMS5003;65579;45.534;6.212;2023-08-17T03:47:23;17;14;
76661;PMS5003;65579;45.534;6.212;2023-08-17T03:49:51;13;13;
76661;PMS5003;65579;45.534;6.212;2023-08-17T03:52:15;12;12;
76661;PMS5003;65579;45.534;6.212;2023-08-17T03:54:41;13;13;
76661;PMS5003;65579;45.534;6.212;2023-08-17T03:57:06;13;13;
76661;PMS5003;65579;45.534;6.212;2023-08-17T03:59:32;13;13;
76661;PMS5003;65579;45.534;6.212;2023-08-17T04:01:58;14;13;
76661;PMS5003;65579;45.534;6.212;2023-08-17T04:04:23;15;14;
76661;PMS5003;65579;45.534;6.212;2023-08-17T04:06:49;13;13;
76661;PMS5003;65579;45.534;6.212;2023-08-17T04:09:15;14;12;
76661;PMS5003;65579;45.534;6.212;2023-08-17T04:11:40;14;14;
76661;PMS5003;65579;45.534;6.212;2023-08-17T04:14:05;13;13;
76661;PMS5003;65579;45.534;6.212;2023-08-17T04:16:31;13;13;
76661;PMS5003;65579;45.534;6.212;2023-08-17T04:18:56;12;12;
76661;PMS5003;65579;45.534;6.212;2023-08-17T04:21:22;12;12;
76661;PMS5003;65579;45.534;6.212;2023-08-17T04:23:48;12;12;
76661;PMS5003;65579;45.534;6.212;2023-08-17T04:26:14;14;13;
76661;PMS5003;65579;45.534;6.212;2023-08-17T04:28:39;17;15;
76661;PMS5003;65579;45.534;6.212;2023-08-17T04:31:05;13;13;
76661;PMS5003;65579;45.534;6.212;2023-08-17T04:33:31;12;12;
76661;PMS5003;65579;45.534;6.212;2023-08-17T04:35:57;13;12;
76661;PMS5003;65579;45.534;6.212;2023-08-17T04:38:23;20;18;
76661;PMS5003;65579;45.534;6.212;2023-08-17T04:40:48;15;14;
76661;PMS5003;65579;45.534;6.212;2023-08-17T04:43:14;18;17;
76661;PMS5003;65579;45.534;6.212;2023-08-17T04:45:40;14;14;
76661;PMS5003;65579;45.534;6.212;2023-08-17T04:48:05;15;14;
76661;PMS5003;65579;45.534;6.212;2023-08-17T04:50:31;12;12;
76661;PMS5003;65579;45.534;6.212;2023-08-17T04:52:57;13;12;
76661;PMS5003;65579;45.534;6.212;2023-08-17T04:55:22;18;18;
76661;PMS5003;65579;45.534;6.212;2023-08-17T04:57:48;14;12;
76661;PMS5003;65579;45.534;6.212;2023-08-17T05:00:14;12;12;
76661;PMS5003;65579;45.534;6.212;2023-08-17T05:02:40;13;13;
76661;PMS5003;65579;45.534;6.212;2023-08-17T05:05:06;14;11;
76661;PMS5003;65579;45.534;6.212;2023-08-17T05:07:31;15;14;
76661;PMS5003;65579;45.534;6.212;2023-08-17T05:09:57;11;11;
76661;PMS5003;65579;45.534;6.212;2023-08-17T05:12:23;13;12;
76661;PMS5003;65579;45.534;6.212;2023-08-17T05:14:48;12;12;
76661;PMS5003;65579;45.534;6.212;2023-08-17T05:17:14;20;19;
76661;PMS5003;65579;45.534;6.212;2023-08-17T05:19:39;14;14;
76661;PMS5003;65579;45.534;6.212;2023-08-17T05:22:08;16;16;
76661;PMS5003;65579;45.534;6.212;2023-08-17T05:24:31;15;15;
76661;PMS5003;65579;45.534;6.212;2023-08-17T05:26:57;11;11;
76661;PMS5003;65579;45.534;6.212;2023-08-17T05:29:22;18;18;
76661;PMS5003;65579;45.534;6.212;2023-08-17T05:31:48;13;13;
76661;PMS5003;65579;45.534;6.212;2023-08-17T05:34:13;12;12;
76661;PMS5003;65579;45.534;6.212;2023-08-17T05:36:39;14;13;
76661;PMS5003;65579;45.534;6.212;2023-08-17T05:39:05;12;11;
76661;PMS5003;65579;45.534;6.212;2023-08-17T05:41:30;15;13;
76661;PMS5003;65579;45.534;6.212;2023-08-17T05:43:56;14;14;
76661;PMS5003;65579;45.534;6.212;2023-08-17T05:46:22;12;12;
76661;PMS5003;65579;45.534;6.212;2023-08-17T05:48:47;14;12;
76661;PMS5003;65579;45.534;6.212;2023-08-17T05:51:13;11;11;
76661;PMS5003;65579;45.534;6.212;2023-08-17T05:53:38;16;14;
76661;PMS5003;65579;45.534;6.212;2023-08-17T05:56:03;11;11;
76661;PMS5003;65579;45.534;6.212;2023-08-17T05:58:29;13;13;
76661;PMS5003;65579;45.534;6.212;2023-08-17T06:00:54;16;15;
76661;PMS5003;65579;45.534;6.212;2023-08-17T06:03:19;12;12;
76661;PMS5003;65579;45.534;6.212;2023-08-17T06:05:45;13;12;
76661;PMS5003;65579;45.534;6.212;2023-08-17T06:08:10;16;15;
76661;PMS5003;65579;45.534;6.212;2023-08-17T06:10:36;14;14;
76661;PMS5003;65579;45.534;6.212;2023-08-17T06:13:02;12;12;
76661;PMS5003;65579;45.534;6.212;2023-08-17T06:15:27;16;15;
76661;PMS5003;65579;45.534;6.212;2023-08-17T06:17:53;13;13;
76661;PMS5003;65579;45.534;6.212;2023-08-17T06:20:18;15;13;
76661;PMS5003;65579;45.534;6.212;2023-08-17T06:22:44;13;13;
76661;PMS5003;65579;45.534;6.212;2023-08-17T06:25:09;11;11;
76661;PMS5003;65579;45.534;6.212;2023-08-17T06:27:35;13;13;
76661;PMS5003;65579;45.534;6.212;2023-08-17T06:30:00;9;9;
76661;PMS5003;65579;45.534;6.212;2023-08-17T06:32:26;16;15;
76661;PMS5003;65579;45.534;6.212;2023-08-17T06:34:51;20;19;
76661;PMS5003;65579;45.534;6.212;2023-08-17T06:37:17;14;14;
76661;PMS5003;65579;45.534;6.212;2023-08-17T06:39:43;12;12;
76661;PMS5003;65579;45.534;6.212;2023-08-17T06:42:08;12;12;
76661;PMS5003;65579;45.534;6.212;2023-08-17T06:44:34;14;14;
76661;PMS5003;65579;45.534;6.212;2023-08-17T06:47:00;19;18;
76661;PMS5003;65579;45.534;6.212;2023-08-17T06:49:26;13;13;
76661;PMS5003;65579;45.534;6.212;2023-08-17T06:51:51;13;13;
76661;PMS5003;65579;45.534;6.212;2023-08-17T06:54:16;15;14;
76661;PMS5003;65579;45.534;6.212;2023-08-17T06:56:42;16;15;
76661;PMS5003;65579;45.534;6.212;2023-08-17T06:59:08;13;13;
76661;PMS5003;65579;45.534;6.212;2023-08-17T07:01:33;15;15;
76661;PMS5003;65579;45.534;6.212;2023-08-17T07:03:59;19;19;
76661;PMS5003;65579;45.534;6.212;2023-08-17T07:06:25;16;16;
76661;PMS5003;65579;45.534;6.212;2023-08-17T07:08:51;18;15;
76661;PMS5003;65579;45.534;6.212;2023-08-17T07:11:16;17;14;
76661;PMS5003;65579;45.534;6.212;2023-08-17T07:13:42;16;16;
76661;PMS5003;65579;45.534;6.212;2023-08-17T07:16:07;18;17;
76661;PMS5003;65579;45.534;6.212;2023-08-17T07:18:33;20;19;
76661;PMS5003;65579;45.534;6.212;2023-08-17T07:20:59;19;17;
76661;PMS5003;65579;45.534;6.212;2023-08-17T07:23:25;14;14;
76661;PMS5003;65579;45.534;6.212;2023-08-17T07:25:50;17;17;
76661;PMS5003;65579;45.534;6.212;2023-08-17T07:28:16;13;13;
76661;PMS5003;65579;45.534;6.212;2023-08-17T07:30:41;14;14;
76661;PMS5003;65579;45.534;6.212;2023-08-17T07:33:06;16;15;
76661;PMS5003;65579;45.534;6.212;2023-08-17T07:35:32;14;13;
76661;PMS5003;65579;45.534;6.212;2023-08-17T07:37:58;16;16;
76661;PMS5003;65579;45.534;6.212;2023-08-17T07:40:24;15;15;
76661;PMS5003;65579;45.534;6.212;2023-08-17T07:42:49;17;17;
76661;PMS5003;65579;45.534;6.212;2023-08-17T07:45:14;13;13;
76661;PMS5003;65579;45.534;6.212;2023-08-17T07:47:40;14;14;
76661;PMS5003;65579;45.534;6.212;2023-08-17T07:50:06;15;15;
76661;PMS5003;65579;45.534;6.212;2023-08-17T07:52:31;24;22;
76661;PMS5003;65579;45.534;6.212;2023-08-17T07:54:57;16;15;
76661;PMS5003;65579;45.534;6.212;2023-08-17T07:57:22;14;14;
76661;PMS5003;65579;45.534;6.212;2023-08-17T07:59:47;11;11;
76661;PMS5003;65579;45.534;6.212;2023-08-17T08:02:13;18;15;
76661;PMS5003;65579;45.534;6.212;2023-08-17T08:04:39;16;14;
76661;PMS5003;65579;45.534;6.212;2023-08-17T08:07:05;19;18;
76661;PMS5003;65579;45.534;6.212;2023-08-17T08:09:30;15;14;
76661;PMS5003;65579;45.534;6.212;2023-08-17T08:11:56;12;12;
76661;PMS5003;65579;45.534;6.212;2023-08-17T08:14:21;17;15;
76661;PMS5003;65579;45.534;6.212;2023-08-17T08:16:47;14;13;
76661;PMS5003;65579;45.534;6.212;2023-08-17T08:19:13;14;14;
76661;PMS5003;65579;45.534;6.212;2023-08-17T08:21:38;14;14;
76661;PMS5003;65579;45.534;6.212;2023-08-17T08:24:04;16;13;
76661;PMS5003;65579;45.534;6.212;2023-08-17T08:26:30;15;14;
76661;PMS5003;65579;45.534;6.212;2023-08-17T08:28:55;14;14;
76661;PMS5003;65579;45.534;6.212;2023-08-17T08:31:21;14;14;
76661;PMS5003;65579;45.534;6.212;2023-08-17T08:33:46;14;14;
76661;PMS5003;65579;45.534;6.212;2023-08-17T08:36:12;15;15;
76661;PMS5003;65579;45.534;6.212;2023-08-17T08:38:37;13;13;
76661;PMS5003;65579;45.534;6.212;2023-08-17T08:41:03;16;16;
76661;PMS5003;65579;45.534;6.212;2023-08-17T08:43:29;14;13;
76661;PMS5003;65579;45.534;6.212;2023-08-17T08:45:54;17;15;
76661;PMS5003;65579;45.534;6.212;2023-08-17T08:48:26;14;14;
76661;PMS5003;65579;45.534;6.212;2023-08-17T08:50:46;13;13;
76661;PMS5003;65579;45.534;6.212;2023-08-17T08:53:14;13;13;
76661;PMS5003;65579;45.534;6.212;2023-08-17T08:55:37;15;15;
76661;PMS5003;65579;45.534;6.212;2023-08-17T08:58:02;13;13;
76661;PMS5003;65579;45.534;6.212;2023-08-17T09:00:28;14;13;
76661;PMS5003;65579;45.534;6.212;2023-08-17T09:02:53;14;13;
76661;PMS5003;65579;45.534;6.212;2023-08-17T09:05:19;19;17;
76661;PMS5003;65579;45.534;6.212;2023-08-17T09:07:44;14;14;
76661;PMS5003;65579;45.534;6.212;2023-08-17T09:10:10;13;13;
76661;PMS5003;65579;45.534;6.212;2023-08-17T09:12:36;18;18;
76661;PMS5003;65579;45.534;6.212;2023-08-17T09:15:01;14;12;
76661;PMS5003;65579;45.534;6.212;2023-08-17T09:17:27;16;15;
76661;PMS5003;65579;45.534;6.212;2023-08-17T09:19:52;16;16;
76661;PMS5003;65579;45.534;6.212;2023-08-17T09:22:22;17;15;
76661;PMS5003;65579;45.534;6.212;2023-08-17T09:24:43;16;16;
76661;PMS5003;65579;45.534;6.212;2023-08-17T09:27:09;14;14;
76661;PMS5003;65579;45.534;6.212;2023-08-17T09:29:34;14;14;
76661;PMS5003;65579;45.534;6.212;2023-08-17T09:32:04;19;15;
76661;PMS5003;65579;45.534;6.212;2023-08-17T09:34:25;14;14;
76661;PMS5003;65579;45.534;6.212;2023-08-17T09:36:51;15;14;
76661;PMS5003;65579;45.534;6.212;2023-08-17T09:39:16;13;13;
76661;PMS5003;65579;45.534;6.212;2023-08-17T09:41:42;16;16;
76661;PMS5003;65579;45.534;6.212;2023-08-17T09:44:08;17;17;
76661;PMS5003;65579;45.534;6.212;2023-08-17T09:46:33;17;14;
76661;PMS5003;65579;45.534;6.212;2023-08-17T09:48:58;14;14;
76661;PMS5003;65579;45.534;6.212;2023-08-17T09:51:23;17;17;
76661;PMS5003;65579;45.534;6.212;2023-08-17T09:53:51;17;16;
76661;PMS5003;65579;45.534;6.212;2023-08-17T09:56:14;16;15;
76661;PMS5003;65579;45.534;6.212;2023-08-17T09:58:40;13;12;
76661;PMS5003;65579;45.534;6.212;2023-08-17T10:01:06;13;13;
76661;PMS5003;65579;45.534;6.212;2023-08-17T10:03:32;15;15;
76661;PMS5003;65579;45.534;6.212;2023-08-17T10:05:58;14;12;
76661;PMS5003;65579;45.534;6.212;2023-08-17T10:08:22;13;13;
76661;PMS5003;65579;45.534;6.212;2023-08-17T10:10:48;17;14;
76661;PMS5003;65579;45.534;6.212;2023-08-17T10:13:16;14;14;
76661;PMS5003;65579;45.534;6.212;2023-08-17T10:15:57;13;13;
76661;PMS5003;65579;45.534;6.212;2023-08-17T10:18:09;13;13;
76661;PMS5003;65579;45.534;6.212;2023-08-17T10:20:30;10;10;
76661;PMS5003;65579;45.534;6.212;2023-08-17T10:22:58;13;13;
76661;PMS5003;65579;45.534;6.212;2023-08-17T10:25:22;12;12;
76661;PMS5003;65579;45.534;6.212;2023-08-17T10:27:46;12;10;
76661;PMS5003;65579;45.534;6.212;2023-08-17T10:30:12;11;11;
76661;PMS5003;65579;45.534;6.212;2023-08-17T10:32:37;11;11;
76661;PMS5003;65579;45.534;6.212;2023-08-17T10:35:03;10;10;
76661;PMS5003;65579;45.534;6.212;2023-08-17T10:37:28;13;13;
76661;PMS5003;65579;45.534;6.212;2023-08-17T10:39:54;11;11;
76661;PMS5003;65579;45.534;6.212;2023-08-17T10:44:45;10;9;
76661;PMS5003;65579;45.534;6.212;2023-08-17T10:47:19;11;10;
76661;PMS5003;65579;45.534;6.212;2023-08-17T10:49:36;14;12;
76661;PMS5003;65579;45.534;6.212;2023-08-17T10:52:02;16;14;
76661;PMS5003;65579;45.534;6.212;2023-08-17T10:56:53;11;11;
76661;PMS5003;65579;45.534;6.212;2023-08-17T11:01:43;9;9;
76661;PMS5003;65579;45.534;6.212;2023-08-17T11:04:09;10;9;
76661;PMS5003;65579;45.534;6.212;2023-08-17T11:06:35;9;8;
76661;PMS5003;65579;45.534;6.212;2023-08-17T11:09:05;11;10;
76661;PMS5003;65579;45.534;6.212;2023-08-17T11:11:26;7;7;
76661;PMS5003;65579;45.534;6.212;2023-08-17T11:13:52;11;10;
76661;PMS5003;65579;45.534;6.212;2023-08-17T11:16:17;11;11;
76661;PMS5003;65579;45.534;6.212;2023-08-17T11:18:42;10;9;
76661;PMS5003;65579;45.534;6.212;2023-08-17T11:21:08;10;10;
76661;PMS5003;65579;45.534;6.212;2023-08-17T11:23:34;9;9;
76661;PMS5003;65579;45.534;6.212;2023-08-17T11:25:59;16;14;
76661;PMS5003;65579;45.534;6.212;2023-08-17T11:28:24;10;10;
76661;PMS5003;65579;45.534;6.212;2023-08-17T11:33:15;11;9;
76661;PMS5003;65579;45.534;6.212;2023-08-17T11:35:45;9;9;
76661;PMS5003;65579;45.534;6.212;2023-08-17T11:38:06;12;12;
76661;PMS5003;65579;45.534;6.212;2023-08-17T11:40:31;10;10;
76661;PMS5003;65579;45.534;6.212;2023-08-17T11:42:56;12;11;
76661;PMS5003;65579;45.534;6.212;2023-08-17T11:45:22;10;10;
76661;PMS5003;65579;45.534;6.212;2023-08-17T11:47:48;9;9;
76661;PMS5003;65579;45.534;6.212;2023-08-17T11:50:13;9;9;
76661;PMS5003;65579;45.534;6.212;2023-08-17T11:52:38;9;9;
76661;PMS5003;65579;45.534;6.212;2023-08-17T11:55:04;10;9;
76661;PMS5003;65579;45.534;6.212;2023-08-17T11:57:29;8;7;
76661;PMS5003;65579;45.534;6.212;2023-08-17T11:59:54;7;7;
76661;PMS5003;65579;45.534;6.212;2023-08-17T12:02:19;11;10;
76661;PMS5003;65579;45.534;6.212;2023-08-17T12:04:45;11;10;
76661;PMS5003;65579;45.534;6.212;2023-08-17T12:07:10;8;7;
76661;PMS5003;65579;45.534;6.212;2023-08-17T12:09:36;9;8;
76661;PMS5003;65579;45.534;6.212;2023-08-17T12:12:01;7;7;
76661;PMS5003;65579;45.534;6.212;2023-08-17T12:14:26;7;5;
76661;PMS5003;65579;45.534;6.212;2023-08-17T12:16:52;7;7;
76661;PMS5003;65579;45.534;6.212;2023-08-17T12:19:19;6;5;
76661;PMS5003;65579;45.534;6.212;2023-08-17T12:21:42;5;2;
76661;PMS5003;65579;45.534;6.212;2023-08-17T12:24:09;8;6;
76661;PMS5003;65579;45.534;6.212;2023-08-17T12:26:33;5;4;
76661;PMS5003;65579;45.534;6.212;2023-08-17T12:28:59;9;8;
76661;PMS5003;65579;45.534;6.212;2023-08-17T12:31:25;6;6;
76661;PMS5003;65579;45.534;6.212;2023-08-17T12:33:51;4;4;
76661;PMS5003;65579;45.534;6.212;2023-08-17T12:36:15;6;4;
76661;PMS5003;65579;45.534;6.212;2023-08-17T12:38:41;3;3;
76661;PMS5003;65579;45.534;6.212;2023-08-17T12:41:07;4;4;
76661;PMS5003;65579;45.534;6.212;2023-08-17T12:43:32;6;4;
76661;PMS5003;65579;45.534;6.212;2023-08-17T12:45:57;3;3;
76661;PMS5003;65579;45.534;6.212;2023-08-17T12:48:23;5;3;
76661;PMS5003;65579;45.534;6.212;2023-08-17T12:50:48;4;2;
76661;PMS5003;65579;45.534;6.212;2023-08-17T12:53:13;2;2;
76661;PMS5003;65579;45.534;6.212;2023-08-17T12:55:40;7;5;
76661;PMS5003;65579;45.534;6.212;2023-08-17T12:58:07;11;6;
76661;PMS5003;65579;45.534;6.212;2023-08-17T13:00:30;3;3;
76661;PMS5003;65579;45.534;6.212;2023-08-17T13:02:56;5;5;
76661;PMS5003;65579;45.534;6.212;2023-08-17T13:05:21;8;3;
76661;PMS5003;65579;45.534;6.212;2023-08-17T13:07:47;4;2;
76661;PMS5003;65579;45.534;6.212;2023-08-17T13:10:12;4;4;
76661;PMS5003;65579;45.534;6.212;2023-08-17T13:12:38;5;4;
76661;PMS5003;65579;45.534;6.212;2023-08-17T13:15:03;5;3;
76661;PMS5003;65579;45.534;6.212;2023-08-17T13:17:29;4;4;
76661;PMS5003;65579;45.534;6.212;2023-08-17T13:19:54;7;7;
76661;PMS5003;65579;45.534;6.212;2023-08-17T13:22:19;5;5;
76661;PMS5003;65579;45.534;6.212;2023-08-17T13:24:45;9;6;
76661;PMS5003;65579;45.534;6.212;2023-08-17T13:27:10;8;8;
76661;PMS5003;65579;45.534;6.212;2023-08-17T13:29:36;3;3;
76661;PMS5003;65579;45.534;6.212;2023-08-17T13:32:01;4;4;
76661;PMS5003;65579;45.534;6.212;2023-08-17T13:34:27;10;5;
76661;PMS5003;65579;45.534;6.212;2023-08-17T13:36:52;3;3;
76661;PMS5003;65579;45.534;6.212;2023-08-17T13:39:18;7;6;
76661;PMS5003;65579;45.534;6.212;2023-08-17T13:41:43;3;3;
76661;PMS5003;65579;45.534;6.212;2023-08-17T13:44:08;7;5;
76661;PMS5003;65579;45.534;6.212;2023-08-17T13:46:34;8;6;
76661;PMS5003;65579;45.534;6.212;2023-08-17T13:48:59;7;4;
76661;PMS5003;65579;45.534;6.212;2023-08-17T13:51:25;4;4;
76661;PMS5003;65579;45.534;6.212;2023-08-17T13:53:50;5;5;
76661;PMS5003;65579;45.534;6.212;2023-08-17T13:56:16;5;5;
76661;PMS5003;65579;45.534;6.212;2023-08-17T13:58:41;4;4;
76661;PMS5003;65579;45.534;6.212;2023-08-17T14:01:07;9;7;
76661;PMS5003;65579;45.534;6.212;2023-08-17T14:03:32;7;4;
76661;PMS5003;65579;45.534;6.212;2023-08-17T14:05:57;5;5;
76661;PMS5003;65579;45.534;6.212;2023-08-17T14:08:23;6;4;
76661;PMS5003;65579;45.534;6.212;2023-08-17T14:10:48;5;5;
76661;PMS5003;65579;45.534;6.212;2023-08-17T14:13:14;5;5;
76661;PMS5003;65579;45.534;6.212;2023-08-17T14:15:39;6;4;
76661;PMS5003;65579;45.534;6.212;2023-08-17T14:18:05;4;4;
76661;PMS5003;65579;45.534;6.212;2023-08-17T14:20:30;5;5;
76661;PMS5003;65579;45.534;6.212;2023-08-17T14:22:56;4;4;
76661;PMS5003;65579;45.534;6.212;2023-08-17T14:25:21;5;4;
76661;PMS5003;65579;45.534;6.212;2023-08-17T14:27:46;7;5;
76661;PMS5003;65579;45.534;6.212;2023-08-17T14:30:12;6;5;
76661;PMS5003;65579;45.534;6.212;2023-08-17T14:32:37;5;5;
76661;PMS5003;65579;45.534;6.212;2023-08-17T14:35:03;5;4;
76661;PMS5003;65579;45.534;6.212;2023-08-17T14:37:28;6;6;
76661;PMS5003;65579;45.534;6.212;2023-08-17T14:39:53;7;4;
76661;PMS5003;65579;45.534;6.212;2023-08-17T14:42:19;5;5;
76661;PMS5003;65579;45.534;6.212;2023-08-17T14:44:44;6;6;
76661;PMS5003;65579;45.534;6.212;2023-08-17T14:47:09;6;6;
76661;PMS5003;65579;45.534;6.212;2023-08-17T14:49:35;6;4;
76661;PMS5003;65579;45.534;6.212;2023-08-17T14:52:00;6;5;
76661;PMS5003;65579;45.534;6.212;2023-08-17T14:54:25;4;4;
76661;PMS5003;65579;45.534;6.212;2023-08-17T14:56:50;7;6;
76661;PMS5003;65579;45.534;6.212;2023-08-17T14:59:16;5;3;
76661;PMS5003;65579;45.534;6.212;2023-08-17T15:01:41;7;6;
76661;PMS5003;65579;45.534;6.212;2023-08-17T15:04:06;5;5;
76661;PMS5003;65579;45.534;6.212;2023-08-17T15:06:32;6;4;
76661;PMS5003;65579;45.534;6.212;2023-08-17T15:08:57;4;4;
76661;PMS5003;65579;45.534;6.212;2023-08-17T15:11:23;7;6;
76661;PMS5003;65579;45.534;6.212;2023-08-17T15:13:48;7;5;
76661;PMS5003;65579;45.534;6.212;2023-08-17T15:16:13;6;6;
76661;PMS5003;65579;45.534;6.212;2023-08-17T15:18:39;7;6;
76661;PMS5003;65579;45.534;6.212;2023-08-17T15:21:04;4;4;
76661;PMS5003;65579;45.534;6.212;2023-08-17T15:23:29;6;6;
76661;PMS5003;65579;45.534;6.212;2023-08-17T15:25:55;6;6;
76661;PMS5003;65579;45.534;6.212;2023-08-17T15:28:20;5;5;
76661;PMS5003;65579;45.534;6.212;2023-08-17T15:30:49;7;6;
76661;PMS5003;65579;45.534;6.212;2023-08-17T15:33:11;5;5;
76661;PMS5003;65579;45.534;6.212;2023-08-17T15:35:36;6;5;
76661;PMS5003;65579;45.534;6.212;2023-08-17T15:38:02;5;5;
76661;PMS5003;65579;45.534;6.212;2023-08-17T15:40:27;6;6;
76661;PMS5003;65579;45.534;6.212;2023-08-17T15:42:52;5;5;
76661;PMS5003;65579;45.534;6.212;2023-08-17T15:45:18;5;5;
76661;PMS5003;65579;45.534;6.212;2023-08-17T15:47:43;7;5;
76661;PMS5003;65579;45.534;6.212;2023-08-17T15:50:09;4;4;
76661;PMS5003;65579;45.534;6.212;2023-08-17T15:52:34;6;4;
76661;PMS5003;65579;45.534;6.212;2023-08-17T15:55:00;4;4;
76661;PMS5003;65579;45.534;6.212;2023-08-17T15:57:25;6;4;
76661;PMS5003;65579;45.534;6.212;2023-08-17T15:59:50;4;4;
76661;PMS5003;65579;45.534;6.212;2023-08-17T16:02:16;4;4;
76661;PMS5003;65579;45.534;6.212;2023-08-17T16:04:41;6;3;
76661;PMS5003;65579;45.534;6.212;2023-08-17T16:07:06;5;5;
76661;PMS5003;65579;45.534;6.212;2023-08-17T16:09:31;7;5;
76661;PMS5003;65579;45.534;6.212;2023-08-17T16:11:57;7;6;
76661;PMS5003;65579;45.534;6.212;2023-08-17T16:14:22;6;4;
76661;PMS5003;65579;45.534;6.212;2023-08-17T16:16:48;4;4;
76661;PMS5003;65579;45.534;6.212;2023-08-17T16:19:13;6;6;
76661;PMS5003;65579;45.534;6.212;2023-08-17T16:21:38;8;5;
76661;PMS5003;65579;45.534;6.212;2023-08-17T16:24:04;3;3;
76661;PMS5003;65579;45.534;6.212;2023-08-17T16:26:29;3;2;